Skip Navigation Links Skip Navigation Links

Current Weather

Chariton Muni, Chariton, Iowa

For information only: do not use for flight planning or navigation.
Latest weather
Observation time Friday, January 21, 2022 1:15 PM CST
Local time Friday, January 21, 2022 1:35 PM CST
Flight conditions Visual Meteorological Conditions
Winds
Wind direction South (180°)
Wind speed 14 mph
Visibility 10 mi.
Sky condition
Ceiling unlimited
Sky clear
Temperature 12°F
Dewpoint 0°F
Altimeter 30.42 in.Hg
Derived measurements
Relative humidity 56%
Wind chill -3°F
Density altitude -2758 ft.
Remarks
Fully automated report.
Automated weather observing station with precipitation discriminator.
METAR KCNC 211915Z AUTO 18012KT 10SM CLR M11/M18 A3042 RMK AO2

Settings

Location code

InnerDrive.Weather 4.0.6770.0 Release CLR 4.0.30319.42000
Copyright ©2018 Inner Drive Technology. All rights reserved. Portions Copyright ©1986-2018 David Braverman.

Find weather

Site navigation


Skip Navigation Links

Place info

Page info

PayPal - The safer, easier way to pay online!

Return home.

Copyright ©2022 Inner Drive Technology. Purveyors of fine, hand-crafted computer software. Page printed 2022-01-21T19:35:28 UTC.